sensor_id;sensor_type;location;lat;lon;timestamp;P1;durP1;ratioP1;P2;durP2;ratioP2
3359;SDS011;1693;49.602;11.046;2022-09-27T00:01:35;4.30;;;1.83;;
3359;SDS011;1693;49.602;11.046;2022-09-27T00:04:02;2.13;;;1.70;;
3359;SDS011;1693;49.602;11.046;2022-09-27T00:06:31;2.00;;;1.70;;
3359;SDS011;1693;49.602;11.046;2022-09-27T00:09:00;1.93;;;1.77;;
3359;SDS011;1693;49.602;11.046;2022-09-27T00:11:28;3.03;;;2.20;;
3359;SDS011;1693;49.602;11.046;2022-09-27T00:14:01;1.80;;;1.60;;
3359;SDS011;1693;49.602;11.046;2022-09-27T00:16:31;2.80;;;2.50;;
3359;SDS011;1693;49.602;11.046;2022-09-27T00:19:00;2.33;;;2.03;;
3359;SDS011;1693;49.602;11.046;2022-09-27T00:21:29;2.53;;;2.00;;
3359;SDS011;1693;49.602;11.046;2022-09-27T00:24:02;4.17;;;2.50;;
3359;SDS011;1693;49.602;11.046;2022-09-27T00:26:31;2.57;;;2.37;;
3359;SDS011;1693;49.602;11.046;2022-09-27T00:28:59;3.13;;;2.33;;
3359;SDS011;1693;49.602;11.046;2022-09-27T00:31:34;3.00;;;2.70;;
3359;SDS011;1693;49.602;11.046;2022-09-27T00:34:02;4.27;;;2.97;;
3359;SDS011;1693;49.602;11.046;2022-09-27T00:36:33;5.63;;;2.60;;
3359;SDS011;1693;49.602;11.046;2022-09-27T00:39:05;4.10;;;2.07;;
3359;SDS011;1693;49.602;11.046;2022-09-27T00:41:36;4.00;;;2.77;;
3359;SDS011;1693;49.602;11.046;2022-09-27T00:44:04;4.43;;;2.67;;
3359;SDS011;1693;49.602;11.046;2022-09-27T00:46:54;3.20;;;2.90;;
3359;SDS011;1693;49.602;11.046;2022-09-27T00:49:26;4.63;;;3.20;;
3359;SDS011;1693;49.602;11.046;2022-09-27T00:52:01;4.70;;;3.13;;
3359;SDS011;1693;49.602;11.046;2022-09-27T00:54:33;10.73;;;2.80;;
3359;SDS011;1693;49.602;11.046;2022-09-27T00:57:06;2.83;;;2.50;;
3359;SDS011;1693;49.602;11.046;2022-09-27T00:59:34;3.20;;;2.90;;
3359;SDS011;1693;49.602;11.046;2022-09-27T01:02:05;3.27;;;2.77;;
3359;SDS011;1693;49.602;11.046;2022-09-27T01:04:34;3.80;;;2.30;;
3359;SDS011;1693;49.602;11.046;2022-09-27T01:07:07;3.13;;;2.83;;
3359;SDS011;1693;49.602;11.046;2022-09-27T01:09:35;4.43;;;3.00;;
3359;SDS011;1693;49.602;11.046;2022-09-27T01:12:06;4.87;;;3.10;;
3359;SDS011;1693;49.602;11.046;2022-09-27T01:14:48;4.20;;;2.63;;
3359;SDS011;1693;49.602;11.046;2022-09-27T01:17:33;3.40;;;2.40;;
3359;SDS011;1693;49.602;11.046;2022-09-27T01:20:15;4.10;;;2.20;;
3359;SDS011;1693;49.602;11.046;2022-09-27T01:23:37;4.30;;;2.60;;
3359;SDS011;1693;49.602;11.046;2022-09-27T01:26:26;2.47;;;1.87;;
3359;SDS011;1693;49.602;11.046;2022-09-27T01:29:21;2.00;;;1.70;;
3359;SDS011;1693;49.602;11.046;2022-09-27T01:32:00;2.67;;;1.70;;
3359;SDS011;1693;49.602;11.046;2022-09-27T01:34:33;2.07;;;1.50;;
3359;SDS011;1693;49.602;11.046;2022-09-27T01:37:11;2.13;;;1.93;;
3359;SDS011;1693;49.602;11.046;2022-09-27T01:39:48;2.07;;;1.87;;
3359;SDS011;1693;49.602;11.046;2022-09-27T01:42:24;1.63;;;1.30;;
3359;SDS011;1693;49.602;11.046;2022-09-27T01:44:58;2.37;;;1.60;;
3359;SDS011;1693;49.602;11.046;2022-09-27T01:47:36;2.53;;;1.73;;
3359;SDS011;1693;49.602;11.046;2022-09-27T01:50:10;1.37;;;1.20;;
3359;SDS011;1693;49.602;11.046;2022-09-27T01:52:42;2.40;;;1.60;;
3359;SDS011;1693;49.602;11.046;2022-09-27T01:55:14;1.97;;;1.57;;
3359;SDS011;1693;49.602;11.046;2022-09-27T01:57:46;1.97;;;1.43;;
3359;SDS011;1693;49.602;11.046;2022-09-27T02:00:19;1.87;;;1.70;;
3359;SDS011;1693;49.602;11.046;2022-09-27T02:02:51;1.70;;;1.60;;
3359;SDS011;1693;49.602;11.046;2022-09-27T02:05:25;2.17;;;1.63;;
3359;SDS011;1693;49.602;11.046;2022-09-27T02:07:58;2.00;;;1.20;;
3359;SDS011;1693;49.602;11.046;2022-09-27T02:10:32;2.37;;;1.23;;
3359;SDS011;1693;49.602;11.046;2022-09-27T02:13:06;3.00;;;1.43;;
3359;SDS011;1693;49.602;11.046;2022-09-27T02:15:45;1.53;;;1.30;;
3359;SDS011;1693;49.602;11.046;2022-09-27T02:18:21;1.70;;;1.13;;
3359;SDS011;1693;49.602;11.046;2022-09-27T02:20:54;3.40;;;1.73;;
3359;SDS011;1693;49.602;11.046;2022-09-27T02:23:25;2.50;;;1.80;;
3359;SDS011;1693;49.602;11.046;2022-09-27T02:26:02;1.77;;;1.27;;
3359;SDS011;1693;49.602;11.046;2022-09-27T02:28:34;2.90;;;1.53;;
3359;SDS011;1693;49.602;11.046;2022-09-27T02:31:05;1.60;;;1.30;;
3359;SDS011;1693;49.602;11.046;2022-09-27T02:33:36;1.50;;;1.27;;
3359;SDS011;1693;49.602;11.046;2022-09-27T02:36:11;2.53;;;1.43;;
3359;SDS011;1693;49.602;11.046;2022-09-27T02:38:40;1.70;;;1.40;;
3359;SDS011;1693;49.602;11.046;2022-09-27T02:41:12;1.67;;;1.57;;
3359;SDS011;1693;49.602;11.046;2022-09-27T02:43:44;2.60;;;1.50;;
3359;SDS011;1693;49.602;11.046;2022-09-27T02:49:13;1.53;;;1.40;;
3359;SDS011;1693;49.602;11.046;2022-09-27T02:51:59;2.63;;;1.50;;
3359;SDS011;1693;49.602;11.046;2022-09-27T02:54:41;5.23;;;1.70;;
3359;SDS011;1693;49.602;11.046;2022-09-27T02:57:19;3.10;;;1.53;;
3359;SDS011;1693;49.602;11.046;2022-09-27T03:00:00;1.60;;;1.50;;
3359;SDS011;1693;49.602;11.046;2022-09-27T03:02:34;1.80;;;1.70;;
3359;SDS011;1693;49.602;11.046;2022-09-27T03:05:14;4.60;;;1.50;;
3359;SDS011;1693;49.602;11.046;2022-09-27T03:07:48;2.00;;;1.40;;
3359;SDS011;1693;49.602;11.046;2022-09-27T03:10:21;1.73;;;1.40;;
3359;SDS011;1693;49.602;11.046;2022-09-27T03:12:52;2.10;;;1.80;;
3359;SDS011;1693;49.602;11.046;2022-09-27T03:15:21;1.80;;;1.30;;
3359;SDS011;1693;49.602;11.046;2022-09-27T03:17:49;2.70;;;1.27;;
3359;SDS011;1693;49.602;11.046;2022-09-27T03:20:19;1.70;;;1.40;;
3359;SDS011;1693;49.602;11.046;2022-09-27T03:22:48;1.73;;;1.40;;
3359;SDS011;1693;49.602;11.046;2022-09-27T03:25:15;3.97;;;1.80;;
3359;SDS011;1693;49.602;11.046;2022-09-27T03:27:45;9.07;;;1.90;;
3359;SDS011;1693;49.602;11.046;2022-09-27T03:30:14;1.90;;;1.60;;
3359;SDS011;1693;49.602;11.046;2022-09-27T03:32:42;2.00;;;1.30;;
3359;SDS011;1693;49.602;11.046;2022-09-27T03:35:11;1.43;;;1.07;;
3359;SDS011;1693;49.602;11.046;2022-09-27T03:37:42;2.27;;;1.40;;
3359;SDS011;1693;49.602;11.046;2022-09-27T03:40:09;2.07;;;1.63;;
3359;SDS011;1693;49.602;11.046;2022-09-27T03:42:37;1.93;;;1.53;;
3359;SDS011;1693;49.602;11.046;2022-09-27T03:45:04;3.67;;;1.67;;
3359;SDS011;1693;49.602;11.046;2022-09-27T03:47:34;1.47;;;1.33;;
3359;SDS011;1693;49.602;11.046;2022-09-27T03:50:07;1.90;;;1.60;;
3359;SDS011;1693;49.602;11.046;2022-09-27T03:52:36;2.20;;;1.60;;
3359;SDS011;1693;49.602;11.046;2022-09-27T03:55:09;2.53;;;1.30;;
3359;SDS011;1693;49.602;11.046;2022-09-27T03:57:38;1.70;;;1.60;;
3359;SDS011;1693;49.602;11.046;2022-09-27T04:00:09;2.03;;;1.43;;
3359;SDS011;1693;49.602;11.046;2022-09-27T04:02:41;1.40;;;1.20;;
3359;SDS011;1693;49.602;11.046;2022-09-27T04:05:10;2.17;;;1.50;;
3359;SDS011;1693;49.602;11.046;2022-09-27T04:07:37;2.13;;;1.40;;
3359;SDS011;1693;49.602;11.046;2022-09-27T04:10:08;1.83;;;1.47;;
3359;SDS011;1693;49.602;11.046;2022-09-27T04:12:37;1.80;;;1.50;;
3359;SDS011;1693;49.602;11.046;2022-09-27T04:15:07;1.80;;;1.50;;
3359;SDS011;1693;49.602;11.046;2022-09-27T04:17:39;2.03;;;1.27;;
3359;SDS011;1693;49.602;11.046;2022-09-27T04:20:07;1.63;;;1.23;;
3359;SDS011;1693;49.602;11.046;2022-09-27T04:22:37;1.50;;;1.27;;
3359;SDS011;1693;49.602;11.046;2022-09-27T04:25:08;2.23;;;1.50;;
3359;SDS011;1693;49.602;11.046;2022-09-27T04:27:37;1.73;;;1.57;;
3359;SDS011;1693;49.602;11.046;2022-09-27T04:30:09;2.10;;;1.83;;
3359;SDS011;1693;49.602;11.046;2022-09-27T04:32:39;1.70;;;1.60;;
3359;SDS011;1693;49.602;11.046;2022-09-27T04:35:07;1.90;;;1.57;;
3359;SDS011;1693;49.602;11.046;2022-09-27T04:37:53;2.83;;;1.70;;
3359;SDS011;1693;49.602;11.046;2022-09-27T04:40:23;6.17;;;1.53;;
3359;SDS011;1693;49.602;11.046;2022-09-27T04:42:51;2.47;;;1.43;;
3359;SDS011;1693;49.602;11.046;2022-09-27T04:45:19;1.40;;;1.30;;
3359;SDS011;1693;49.602;11.046;2022-09-27T04:47:49;3.50;;;2.37;;
3359;SDS011;1693;49.602;11.046;2022-09-27T04:50:16;4.10;;;1.80;;
3359;SDS011;1693;49.602;11.046;2022-09-27T04:52:48;3.13;;;2.07;;
3359;SDS011;1693;49.602;11.046;2022-09-27T04:55:18;5.27;;;2.10;;
3359;SDS011;1693;49.602;11.046;2022-09-27T04:57:48;2.90;;;1.70;;
3359;SDS011;1693;49.602;11.046;2022-09-27T05:00:17;3.83;;;1.80;;
3359;SDS011;1693;49.602;11.046;2022-09-27T05:02:46;5.73;;;2.87;;
3359;SDS011;1693;49.602;11.046;2022-09-27T05:05:13;3.83;;;2.10;;
3359;SDS011;1693;49.602;11.046;2022-09-27T05:07:41;2.53;;;1.70;;
3359;SDS011;1693;49.602;11.046;2022-09-27T05:10:10;4.07;;;2.13;;
3359;SDS011;1693;49.602;11.046;2022-09-27T05:12:39;3.00;;;2.70;;
3359;SDS011;1693;49.602;11.046;2022-09-27T05:15:13;4.73;;;2.20;;
3359;SDS011;1693;49.602;11.046;2022-09-27T05:17:42;3.63;;;1.57;;
3359;SDS011;1693;49.602;11.046;2022-09-27T05:20:09;4.90;;;2.50;;
3359;SDS011;1693;49.602;11.046;2022-09-27T05:22:42;2.50;;;1.90;;
3359;SDS011;1693;49.602;11.046;2022-09-27T05:25:28;5.20;;;2.17;;
3359;SDS011;1693;49.602;11.046;2022-09-27T05:28:02;3.60;;;1.53;;
3359;SDS011;1693;49.602;11.046;2022-09-27T05:30:35;3.40;;;1.73;;
3359;SDS011;1693;49.602;11.046;2022-09-27T05:33:02;6.10;;;2.43;;
3359;SDS011;1693;49.602;11.046;2022-09-27T05:35:30;2.17;;;1.47;;
3359;SDS011;1693;49.602;11.046;2022-09-27T05:37:58;3.07;;;2.20;;
3359;SDS011;1693;49.602;11.046;2022-09-27T05:40:26;4.13;;;2.17;;
3359;SDS011;1693;49.602;11.046;2022-09-27T05:42:55;4.20;;;1.53;;
3359;SDS011;1693;49.602;11.046;2022-09-27T05:45:23;3.27;;;1.80;;
3359;SDS011;1693;49.602;11.046;2022-09-27T05:47:54;7.20;;;2.20;;
3359;SDS011;1693;49.602;11.046;2022-09-27T05:50:22;4.80;;;1.90;;
3359;SDS011;1693;49.602;11.046;2022-09-27T05:52:50;3.20;;;1.90;;
3359;SDS011;1693;49.602;11.046;2022-09-27T05:55:17;4.07;;;3.70;;
3359;SDS011;1693;49.602;11.046;2022-09-27T05:57:54;5.60;;;2.70;;
3359;SDS011;1693;49.602;11.046;2022-09-27T06:00:22;2.40;;;2.20;;
3359;SDS011;1693;49.602;11.046;2022-09-27T06:02:56;4.20;;;2.20;;
3359;SDS011;1693;49.602;11.046;2022-09-27T06:05:25;3.00;;;1.80;;
3359;SDS011;1693;49.602;11.046;2022-09-27T06:07:57;2.90;;;2.20;;
3359;SDS011;1693;49.602;11.046;2022-09-27T06:10:25;2.87;;;2.10;;
3359;SDS011;1693;49.602;11.046;2022-09-27T06:12:57;5.27;;;2.27;;
3359;SDS011;1693;49.602;11.046;2022-09-27T06:15:25;5.77;;;2.33;;
3359;SDS011;1693;49.602;11.046;2022-09-27T06:17:52;3.30;;;2.10;;
3359;SDS011;1693;49.602;11.046;2022-09-27T06:20:21;4.10;;;2.83;;
3359;SDS011;1693;49.602;11.046;2022-09-27T06:22:48;6.53;;;2.57;;
3359;SDS011;1693;49.602;11.046;2022-09-27T06:25:15;5.40;;;2.57;;
3359;SDS011;1693;49.602;11.046;2022-09-27T06:27:42;3.60;;;2.80;;
3359;SDS011;1693;49.602;11.046;2022-09-27T06:30:10;5.20;;;3.00;;
3359;SDS011;1693;49.602;11.046;2022-09-27T06:32:37;6.50;;;2.53;;
3359;SDS011;1693;49.602;11.046;2022-09-27T06:35:04;5.60;;;2.30;;
3359;SDS011;1693;49.602;11.046;2022-09-27T06:37:34;2.90;;;2.20;;
3359;SDS011;1693;49.602;11.046;2022-09-27T06:40:01;2.83;;;2.20;;
3359;SDS011;1693;49.602;11.046;2022-09-27T06:42:29;5.47;;;3.80;;
3359;SDS011;1693;49.602;11.046;2022-09-27T06:44:56;3.40;;;2.30;;
3359;SDS011;1693;49.602;11.046;2022-09-27T06:47:23;2.50;;;2.30;;
3359;SDS011;1693;49.602;11.046;2022-09-27T06:49:50;2.27;;;2.07;;
3359;SDS011;1693;49.602;11.046;2022-09-27T06:52:17;2.20;;;1.40;;
3359;SDS011;1693;49.602;11.046;2022-09-27T06:54:45;2.20;;;1.90;;
3359;SDS011;1693;49.602;11.046;2022-09-27T06:57:12;3.27;;;2.30;;
3359;SDS011;1693;49.602;11.046;2022-09-27T07:00:00;1.83;;;1.60;;
3359;SDS011;1693;49.602;11.046;2022-09-27T07:02:45;2.70;;;1.97;;
3359;SDS011;1693;49.602;11.046;2022-09-27T07:05:12;2.80;;;1.90;;
3359;SDS011;1693;49.602;11.046;2022-09-27T07:07:40;2.03;;;1.30;;
3359;SDS011;1693;49.602;11.046;2022-09-27T07:10:09;1.30;;;1.20;;
3359;SDS011;1693;49.602;11.046;2022-09-27T07:12:37;3.40;;;1.30;;
3359;SDS011;1693;49.602;11.046;2022-09-27T07:15:04;3.00;;;1.20;;
3359;SDS011;1693;49.602;11.046;2022-09-27T07:17:32;1.33;;;1.20;;
3359;SDS011;1693;49.602;11.046;2022-09-27T07:20:00;5.43;;;1.57;;
3359;SDS011;1693;49.602;11.046;2022-09-27T07:22:27;1.60;;;1.20;;
3359;SDS011;1693;49.602;11.046;2022-09-27T07:24:55;3.10;;;1.43;;
3359;SDS011;1693;49.602;11.046;2022-09-27T07:27:23;2.07;;;1.10;;
3359;SDS011;1693;49.602;11.046;2022-09-27T07:29:50;2.70;;;1.77;;
3359;SDS011;1693;49.602;11.046;2022-09-27T07:32:18;1.20;;;1.00;;
3359;SDS011;1693;49.602;11.046;2022-09-27T07:34:45;1.50;;;1.30;;
3359;SDS011;1693;49.602;11.046;2022-09-27T07:37:12;1.70;;;1.10;;
3359;SDS011;1693;49.602;11.046;2022-09-27T07:39:39;1.40;;;1.20;;
3359;SDS011;1693;49.602;11.046;2022-09-27T07:42:06;1.30;;;1.00;;
3359;SDS011;1693;49.602;11.046;2022-09-27T07:44:35;2.00;;;1.40;;
3359;SDS011;1693;49.602;11.046;2022-09-27T07:47:05;1.43;;;1.20;;
3359;SDS011;1693;49.602;11.046;2022-09-27T07:49:35;1.83;;;1.00;;
3359;SDS011;1693;49.602;11.046;2022-09-27T07:52:02;3.00;;;1.73;;
3359;SDS011;1693;49.602;11.046;2022-09-27T07:54:29;2.30;;;1.27;;
3359;SDS011;1693;49.602;11.046;2022-09-27T07:56:56;1.60;;;1.30;;
3359;SDS011;1693;49.602;11.046;2022-09-27T07:59:23;3.63;;;1.10;;
3359;SDS011;1693;49.602;11.046;2022-09-27T08:01:53;1.30;;;0.90;;
3359;SDS011;1693;49.602;11.046;2022-09-27T08:04:20;1.60;;;1.00;;
3359;SDS011;1693;49.602;11.046;2022-09-27T08:06:48;1.40;;;1.07;;
3359;SDS011;1693;49.602;11.046;2022-09-27T08:09:15;1.20;;;1.00;;
3359;SDS011;1693;49.602;11.046;2022-09-27T08:11:42;1.10;;;0.90;;
3359;SDS011;1693;49.602;11.046;2022-09-27T08:14:10;1.37;;;1.17;;
3359;SDS011;1693;49.602;11.046;2022-09-27T08:16:39;1.40;;;1.30;;
3359;SDS011;1693;49.602;11.046;2022-09-27T08:19:07;2.43;;;1.10;;
3359;SDS011;1693;49.602;11.046;2022-09-27T08:21:35;1.70;;;0.93;;
3359;SDS011;1693;49.602;11.046;2022-09-27T08:24:02;3.00;;;1.73;;
3359;SDS011;1693;49.602;11.046;2022-09-27T08:26:29;2.20;;;1.60;;
3359;SDS011;1693;49.602;11.046;2022-09-27T08:28:56;1.93;;;1.13;;
3359;SDS011;1693;49.602;11.046;2022-09-27T08:31:23;1.60;;;1.27;;
3359;SDS011;1693;49.602;11.046;2022-09-27T08:33:50;2.10;;;0.90;;
3359;SDS011;1693;49.602;11.046;2022-09-27T08:36:19;1.73;;;1.20;;
3359;SDS011;1693;49.602;11.046;2022-09-27T08:38:47;2.13;;;1.10;;
3359;SDS011;1693;49.602;11.046;2022-09-27T08:41:17;1.50;;;1.20;;
3359;SDS011;1693;49.602;11.046;2022-09-27T08:43:51;4.20;;;1.30;;
3359;SDS011;1693;49.602;11.046;2022-09-27T08:46:31;1.30;;;1.00;;
3359;SDS011;1693;49.602;11.046;2022-09-27T08:49:09;1.80;;;1.00;;
3359;SDS011;1693;49.602;11.046;2022-09-27T08:51:44;2.13;;;1.20;;
3359;SDS011;1693;49.602;11.046;2022-09-27T08:54:15;1.80;;;1.03;;
3359;SDS011;1693;49.602;11.046;2022-09-27T08:56:45;2.03;;;1.20;;
3359;SDS011;1693;49.602;11.046;2022-09-27T08:59:13;1.20;;;1.00;;
3359;SDS011;1693;49.602;11.046;2022-09-27T09:01:45;2.10;;;1.10;;
3359;SDS011;1693;49.602;11.046;2022-09-27T09:04:14;1.87;;;1.17;;
3359;SDS011;1693;49.602;11.046;2022-09-27T09:06:50;1.97;;;1.13;;
3359;SDS011;1693;49.602;11.046;2022-09-27T09:09:29;1.30;;;1.07;;
3359;SDS011;1693;49.602;11.046;2022-09-27T09:12:07;1.30;;;1.00;;
3359;SDS011;1693;49.602;11.046;2022-09-27T09:15:06;1.30;;;1.10;;
3359;SDS011;1693;49.602;11.046;2022-09-27T09:17:56;1.47;;;1.00;;
3359;SDS011;1693;49.602;11.046;2022-09-27T09:20:40;1.30;;;1.00;;
3359;SDS011;1693;49.602;11.046;2022-09-27T09:23:34;1.37;;;0.90;;
3359;SDS011;1693;49.602;11.046;2022-09-27T09:26:16;1.20;;;0.93;;
3359;SDS011;1693;49.602;11.046;2022-09-27T09:28:52;2.13;;;1.17;;
3359;SDS011;1693;49.602;11.046;2022-09-27T09:31:31;1.27;;;1.00;;
3359;SDS011;1693;49.602;11.046;2022-09-27T09:34:04;1.20;;;0.90;;
3359;SDS011;1693;49.602;11.046;2022-09-27T09:36:37;1.57;;;0.97;;
3359;SDS011;1693;49.602;11.046;2022-09-27T09:39:11;1.40;;;0.97;;
3359;SDS011;1693;49.602;11.046;2022-09-27T09:41:45;1.33;;;0.80;;
3359;SDS011;1693;49.602;11.046;2022-09-27T09:44:26;1.27;;;0.77;;
3359;SDS011;1693;49.602;11.046;2022-09-27T09:46:57;1.10;;;0.80;;
3359;SDS011;1693;49.602;11.046;2022-09-27T09:49:27;1.17;;;0.83;;
3359;SDS011;1693;49.602;11.046;2022-09-27T09:51:58;3.30;;;0.93;;
3359;SDS011;1693;49.602;11.046;2022-09-27T09:54:29;2.30;;;1.10;;
3359;SDS011;1693;49.602;11.046;2022-09-27T09:57:02;2.80;;;1.00;;
3359;SDS011;1693;49.602;11.046;2022-09-27T09:59:35;2.40;;;1.03;;
3359;SDS011;1693;49.602;11.046;2022-09-27T10:02:13;1.20;;;0.90;;
3359;SDS011;1693;49.602;11.046;2022-09-27T10:04:48;1.07;;;0.90;;
3359;SDS011;1693;49.602;11.046;2022-09-27T10:07:15;1.10;;;0.90;;
3359;SDS011;1693;49.602;11.046;2022-09-27T10:09:48;2.57;;;0.87;;
3359;SDS011;1693;49.602;11.046;2022-09-27T10:12:15;2.17;;;0.90;;
3359;SDS011;1693;49.602;11.046;2022-09-27T10:14:43;1.10;;;0.90;;
3359;SDS011;1693;49.602;11.046;2022-09-27T10:17:13;1.10;;;0.90;;
3359;SDS011;1693;49.602;11.046;2022-09-27T10:19:44;2.00;;;1.07;;
3359;SDS011;1693;49.602;11.046;2022-09-27T10:22:13;1.47;;;1.10;;
3359;SDS011;1693;49.602;11.046;2022-09-27T10:24:55;1.63;;;1.00;;
3359;SDS011;1693;49.602;11.046;2022-09-27T10:27:23;1.40;;;1.10;;
3359;SDS011;1693;49.602;11.046;2022-09-27T10:29:55;1.30;;;1.10;;
3359;SDS011;1693;49.602;11.046;2022-09-27T10:32:24;1.20;;;1.07;;
3359;SDS011;1693;49.602;11.046;2022-09-27T10:34:55;1.93;;;1.17;;
3359;SDS011;1693;49.602;11.046;2022-09-27T10:37:42;1.23;;;1.07;;
3359;SDS011;1693;49.602;11.046;2022-09-27T10:40:18;1.40;;;0.93;;
3359;SDS011;1693;49.602;11.046;2022-09-27T10:42:53;1.50;;;0.90;;
3359;SDS011;1693;49.602;11.046;2022-09-27T10:45:27;1.40;;;1.00;;
3359;SDS011;1693;49.602;11.046;2022-09-27T10:47:55;1.83;;;0.93;;
3359;SDS011;1693;49.602;11.046;2022-09-27T10:50:24;1.43;;;1.30;;
3359;SDS011;1693;49.602;11.046;2022-09-27T10:52:59;1.17;;;0.90;;
3359;SDS011;1693;49.602;11.046;2022-09-27T10:55:30;1.30;;;0.90;;
3359;SDS011;1693;49.602;11.046;2022-09-27T10:57:59;1.43;;;1.00;;
3359;SDS011;1693;49.602;11.046;2022-09-27T11:00:28;2.00;;;0.97;;
3359;SDS011;1693;49.602;11.046;2022-09-27T11:02:58;1.43;;;0.90;;
3359;SDS011;1693;49.602;11.046;2022-09-27T11:05:31;1.20;;;0.80;;
3359;SDS011;1693;49.602;11.046;2022-09-27T11:08:01;3.60;;;1.10;;
3359;SDS011;1693;49.602;11.046;2022-09-27T11:11:00;1.50;;;1.10;;
3359;SDS011;1693;49.602;11.046;2022-09-27T11:13:30;2.03;;;1.10;;
3359;SDS011;1693;49.602;11.046;2022-09-27T11:18:56;1.50;;;0.90;;
3359;SDS011;1693;49.602;11.046;2022-09-27T11:21:36;1.47;;;0.90;;
3359;SDS011;1693;49.602;11.046;2022-09-27T11:24:22;1.10;;;0.80;;
3359;SDS011;1693;49.602;11.046;2022-09-27T11:27:03;2.23;;;0.80;;
3359;SDS011;1693;49.602;11.046;2022-09-27T11:29:45;1.17;;;0.90;;
3359;SDS011;1693;49.602;11.046;2022-09-27T11:32:26;3.27;;;1.13;;
3359;SDS011;1693;49.602;11.046;2022-09-27T11:35:06;1.27;;;0.93;;
3359;SDS011;1693;49.602;11.046;2022-09-27T11:37:47;2.77;;;1.20;;
3359;SDS011;1693;49.602;11.046;2022-09-27T11:40:26;2.00;;;1.10;;
3359;SDS011;1693;49.602;11.046;2022-09-27T11:45:57;1.40;;;0.90;;
3359;SDS011;1693;49.602;11.046;2022-09-27T11:48:38;1.00;;;0.80;;
3359;SDS011;1693;49.602;11.046;2022-09-27T11:51:22;9.63;;;1.20;;
3359;SDS011;1693;49.602;11.046;2022-09-27T11:54:03;1.47;;;0.90;;
3359;SDS011;1693;49.602;11.046;2022-09-27T11:56:40;1.30;;;0.83;;
3359;SDS011;1693;49.602;11.046;2022-09-27T11:59:24;1.10;;;0.80;;
3359;SDS011;1693;49.602;11.046;2022-09-27T12:02:00;4.73;;;1.23;;
3359;SDS011;1693;49.602;11.046;2022-09-27T12:04:41;1.23;;;0.80;;
3359;SDS011;1693;49.602;11.046;2022-09-27T12:07:17;1.60;;;0.90;;
3359;SDS011;1693;49.602;11.046;2022-09-27T12:09:56;2.37;;;0.90;;
3359;SDS011;1693;49.602;11.046;2022-09-27T12:12:28;1.63;;;1.00;;
3359;SDS011;1693;49.602;11.046;2022-09-27T12:15:00;1.17;;;0.80;;
3359;SDS011;1693;49.602;11.046;2022-09-27T12:17:30;1.33;;;0.90;;
3359;SDS011;1693;49.602;11.046;2022-09-27T12:20:02;1.20;;;0.80;;
3359;SDS011;1693;49.602;11.046;2022-09-27T12:22:33;1.63;;;0.80;;
3359;SDS011;1693;49.602;11.046;2022-09-27T12:25:16;2.20;;;0.90;;
3359;SDS011;1693;49.602;11.046;2022-09-27T12:27:46;1.30;;;0.80;;
3359;SDS011;1693;49.602;11.046;2022-09-27T12:30:17;2.70;;;1.43;;
3359;SDS011;1693;49.602;11.046;2022-09-27T12:32:47;1.40;;;1.00;;
3359;SDS011;1693;49.602;11.046;2022-09-27T12:35:21;2.83;;;1.47;;
3359;SDS011;1693;49.602;11.046;2022-09-27T12:37:54;4.63;;;1.00;;
3359;SDS011;1693;49.602;11.046;2022-09-27T12:40:26;1.00;;;0.70;;
3359;SDS011;1693;49.602;11.046;2022-09-27T12:42:57;1.40;;;1.17;;
3359;SDS011;1693;49.602;11.046;2022-09-27T12:45:34;1.10;;;0.80;;
3359;SDS011;1693;49.602;11.046;2022-09-27T12:48:10;1.23;;;0.80;;
3359;SDS011;1693;49.602;11.046;2022-09-27T12:50:43;2.03;;;0.80;;
3359;SDS011;1693;49.602;11.046;2022-09-27T12:53:20;2.17;;;1.40;;
3359;SDS011;1693;49.602;11.046;2022-09-27T12:55:58;1.83;;;0.90;;
3359;SDS011;1693;49.602;11.046;2022-09-27T12:58:40;1.50;;;1.10;;
3359;SDS011;1693;49.602;11.046;2022-09-27T13:01:43;1.83;;;1.33;;
3359;SDS011;1693;49.602;11.046;2022-09-27T13:04:33;2.17;;;1.27;;
3359;SDS011;1693;49.602;11.046;2022-09-27T13:07:34;3.47;;;1.43;;
3359;SDS011;1693;49.602;11.046;2022-09-27T13:10:17;2.37;;;1.20;;
3359;SDS011;1693;49.602;11.046;2022-09-27T13:13:04;1.70;;;1.07;;
3359;SDS011;1693;49.602;11.046;2022-09-27T13:15:40;4.93;;;1.53;;
3359;SDS011;1693;49.602;11.046;2022-09-27T13:18:31;1.67;;;1.50;;
3359;SDS011;1693;49.602;11.046;2022-09-27T13:39:17;1.17;;;0.97;;
3359;SDS011;1693;49.602;11.046;2022-09-27T13:42:00;1.33;;;1.13;;
3359;SDS011;1693;49.602;11.046;2022-09-27T13:44:57;1.63;;;1.20;;
3359;SDS011;1693;49.602;11.046;2022-09-27T13:47:42;2.97;;;1.30;;
3359;SDS011;1693;49.602;11.046;2022-09-27T13:50:16;1.50;;;1.10;;
3359;SDS011;1693;49.602;11.046;2022-09-27T13:52:58;1.63;;;1.13;;
3359;SDS011;1693;49.602;11.046;2022-09-27T13:55:37;1.87;;;1.30;;
3359;SDS011;1693;49.602;11.046;2022-09-27T13:58:14;1.83;;;1.20;;
3359;SDS011;1693;49.602;11.046;2022-09-27T14:01:02;1.30;;;0.90;;
3359;SDS011;1693;49.602;11.046;2022-09-27T14:03:38;1.20;;;0.80;;
3359;SDS011;1693;49.602;11.046;2022-09-27T14:06:20;2.07;;;1.33;;
3359;SDS011;1693;49.602;11.046;2022-09-27T14:08:56;2.50;;;1.20;;
3359;SDS011;1693;49.602;11.046;2022-09-27T14:11:27;1.50;;;1.07;;
3359;SDS011;1693;49.602;11.046;2022-09-27T14:14:06;2.93;;;1.33;;
3359;SDS011;1693;49.602;11.046;2022-09-27T14:16:48;7.73;;;1.57;;
3359;SDS011;1693;49.602;11.046;2022-09-27T14:19:18;2.30;;;1.70;;
3359;SDS011;1693;49.602;11.046;2022-09-27T14:21:49;1.60;;;1.10;;
3359;SDS011;1693;49.602;11.046;2022-09-27T14:24:22;2.67;;;1.50;;
3359;SDS011;1693;49.602;11.046;2022-09-27T14:27:03;1.93;;;1.30;;
3359;SDS011;1693;49.602;11.046;2022-09-27T14:29:48;2.23;;;1.40;;
3359;SDS011;1693;49.602;11.046;2022-09-27T14:32:20;2.80;;;1.33;;
3359;SDS011;1693;49.602;11.046;2022-09-27T14:35:06;2.60;;;1.30;;
3359;SDS011;1693;49.602;11.046;2022-09-27T14:37:52;1.27;;;1.17;;
3359;SDS011;1693;49.602;11.046;2022-09-27T14:40:21;2.17;;;1.20;;
3359;SDS011;1693;49.602;11.046;2022-09-27T14:42:51;1.83;;;1.13;;
3359;SDS011;1693;49.602;11.046;2022-09-27T14:45:21;1.47;;;1.10;;
3359;SDS011;1693;49.602;11.046;2022-09-27T14:47:52;2.20;;;1.13;;
3359;SDS011;1693;49.602;11.046;2022-09-27T14:50:22;2.90;;;1.77;;
3359;SDS011;1693;49.602;11.046;2022-09-27T14:52:53;1.77;;;1.07;;
3359;SDS011;1693;49.602;11.046;2022-09-27T14:55:24;2.23;;;1.30;;
3359;SDS011;1693;49.602;11.046;2022-09-27T14:57:53;1.80;;;1.10;;
3359;SDS011;1693;49.602;11.046;2022-09-27T15:00:23;2.53;;;1.23;;
3359;SDS011;1693;49.602;11.046;2022-09-27T15:02:56;2.07;;;1.23;;
3359;SDS011;1693;49.602;11.046;2022-09-27T15:05:26;5.33;;;1.13;;
3359;SDS011;1693;49.602;11.046;2022-09-27T15:07:55;2.87;;;1.30;;
3359;SDS011;1693;49.602;11.046;2022-09-27T15:10:27;3.97;;;1.67;;
3359;SDS011;1693;49.602;11.046;2022-09-27T15:12:57;3.13;;;1.50;;
3359;SDS011;1693;49.602;11.046;2022-09-27T15:15:25;2.20;;;1.60;;
3359;SDS011;1693;49.602;11.046;2022-09-27T15:17:56;2.90;;;1.80;;
3359;SDS011;1693;49.602;11.046;2022-09-27T15:20:24;4.77;;;1.67;;
3359;SDS011;1693;49.602;11.046;2022-09-27T15:22:54;1.60;;;1.50;;
3359;SDS011;1693;49.602;11.046;2022-09-27T15:25:27;2.43;;;1.63;;
3359;SDS011;1693;49.602;11.046;2022-09-27T15:28:00;2.23;;;1.40;;
3359;SDS011;1693;49.602;11.046;2022-09-27T15:30:33;2.43;;;1.60;;
3359;SDS011;1693;49.602;11.046;2022-09-27T15:33:02;1.80;;;1.50;;
3359;SDS011;1693;49.602;11.046;2022-09-27T15:35:31;1.90;;;1.30;;
3359;SDS011;1693;49.602;11.046;2022-09-27T15:38:10;2.40;;;1.50;;
3359;SDS011;1693;49.602;11.046;2022-09-27T15:43:38;2.57;;;1.60;;
3359;SDS011;1693;49.602;11.046;2022-09-27T15:46:31;2.27;;;1.47;;
3359;SDS011;1693;49.602;11.046;2022-09-27T15:49:21;4.03;;;2.07;;
3359;SDS011;1693;49.602;11.046;2022-09-27T15:51:56;1.80;;;1.20;;
3359;SDS011;1693;49.602;11.046;2022-09-27T15:54:24;1.97;;;1.53;;
3359;SDS011;1693;49.602;11.046;2022-09-27T15:57:01;3.10;;;1.50;;
3359;SDS011;1693;49.602;11.046;2022-09-27T15:59:33;3.00;;;1.50;;
3359;SDS011;1693;49.602;11.046;2022-09-27T16:02:02;2.50;;;1.43;;
3359;SDS011;1693;49.602;11.046;2022-09-27T16:04:32;2.10;;;1.53;;
3359;SDS011;1693;49.602;11.046;2022-09-27T16:06:59;4.00;;;1.67;;